Time;durP1;ratioP1;P1;durP2;ratioP2;P2;SDS_P1;SDS_P2;PMS_P1;PMS_P2;Temp;Humidity;BMP_temperature;BMP_pressure;BME280_temperature;BME280_humidity;BME280_pressure;Samples;Min_cycle;Max_cycle;Signal;HPM_P1;HPM_P2
2023/05/10 00:00:00;;;;;;;12.23;10.88;;;12.70;99.90;;;;;;5050110;28;20462;-59
2023/05/10 00:02:26;;;;;;;12.02;10.63;;;12.70;99.90;;;;;;5045995;28;20381;-59
2023/05/10 00:04:52;;;;;;;12.48;11.27;;;12.60;99.90;;;;;;5048825;28;20037;-60
2023/05/10 00:07:18;;;;;;;12.90;11.60;;;12.60;99.90;;;;;;5048588;28;20518;-59
2023/05/10 00:09:44;;;;;;;12.52;11.20;;;12.60;99.90;;;;;;5050607;28;20424;-60
2023/05/10 00:12:09;;;;;;;12.73;11.43;;;12.70;99.90;;;;;;5050012;28;20111;-60
2023/05/10 00:14:35;;;;;;;12.63;11.32;;;12.60;99.90;;;;;;5048851;28;20041;-58
2023/05/10 00:17:01;;;;;;;12.73;11.35;;;12.60;99.90;;;;;;5044269;28;20045;-60
2023/05/10 00:19:26;;;;;;;11.40;10.30;;;12.60;99.90;;;;;;5050857;28;20044;-60
2023/05/10 00:21:52;;;;;;;12.88;10.45;;;12.60;99.90;;;;;;5049529;28;20036;-58
2023/05/10 00:24:18;;;;;;;12.18;10.77;;;12.60;99.90;;;;;;5049610;28;20072;-59
2023/05/10 00:26:43;;;;;;;12.15;9.55;;;12.60;99.90;;;;;;5049263;28;20102;-59
2023/05/10 00:29:09;;;;;;;12.05;10.73;;;12.60;99.90;;;;;;5050904;28;20041;-60
2023/05/10 00:31:35;;;;;;;11.25;9.98;;;12.50;99.90;;;;;;5049135;28;20064;-61
2023/05/10 00:34:00;;;;;;;11.25;10.15;;;12.50;99.90;;;;;;5050089;28;20061;-60
2023/05/10 00:36:27;;;;;;;11.50;10.25;;;12.50;99.90;;;;;;5049492;28;20111;-59
2023/05/10 00:38:53;;;;;;;11.43;9.70;;;12.50;99.90;;;;;;5049410;28;20040;-59
2023/05/10 00:41:18;;;;;;;10.88;9.75;;;12.50;99.90;;;;;;5049721;28;20626;-61
2023/05/10 00:43:44;;;;;;;11.25;10.02;;;12.50;99.90;;;;;;5049320;28;20029;-60
2023/05/10 00:46:10;;;;;;;10.75;9.65;;;12.50;99.90;;;;;;5048773;28;20041;-60
2023/05/10 00:48:36;;;;;;;11.00;9.68;;;12.50;99.90;;;;;;5053131;28;20045;-59
2023/05/10 00:51:02;;;;;;;11.40;9.70;;;12.50;99.90;;;;;;5052889;28;20400;-60
2023/05/10 00:53:30;;;;;;;10.68;9.57;;;12.50;99.90;;;;;;5051809;28;20037;-60
2023/05/10 00:55:56;;;;;;;10.88;9.40;;;12.40;99.90;;;;;;5053109;28;20029;-60
2023/05/10 00:58:23;;;;;;;10.25;9.15;;;12.50;99.90;;;;;;5053208;28;20033;-60
2023/05/10 01:00:50;;;;;;;12.07;9.50;;;12.40;99.90;;;;;;5052432;28;20142;-60
2023/05/10 01:03:16;;;;;;;9.80;8.80;;;12.50;99.90;;;;;;5052830;28;20040;-59
2023/05/10 01:05:42;;;;;;;9.88;8.73;;;12.50;99.90;;;;;;5052952;28;20064;-59
2023/05/10 01:08:08;;;;;;;10.85;8.65;;;12.50;99.90;;;;;;5052762;28;20063;-60
2023/05/10 01:10:34;;;;;;;9.65;8.65;;;12.50;99.90;;;;;;5052801;28;20043;-59
2023/05/10 01:13:00;;;;;;;9.80;8.70;;;12.50;99.90;;;;;;5052520;28;20032;-59
2023/05/10 01:15:26;;;;;;;8.68;7.75;;;12.50;99.90;;;;;;5052539;28;20108;-59
2023/05/10 01:17:53;;;;;;;10.30;8.43;;;12.50;99.90;;;;;;5050717;28;20083;-60
2023/05/10 01:20:18;;;;;;;8.95;8.13;;;12.40;99.90;;;;;;5050576;28;20048;-61
2023/05/10 01:23:16;;;;;;;8.60;7.70;;;12.50;99.90;;;;;;5050213;28;20376;-59
2023/05/10 01:26:06;;;;;;;8.50;7.60;;;12.50;99.90;;;;;;5034053;28;20075;-60
2023/05/10 01:28:42;;;;;;;9.27;7.45;;;12.50;99.90;;;;;;5052754;28;20033;-61
2023/05/10 01:31:13;;;;;;;8.20;7.40;;;12.50;99.90;;;;;;5052591;28;20052;-60
2023/05/10 01:33:43;;;;;;;7.28;6.57;;;12.50;99.90;;;;;;5051191;28;20036;-60
2023/05/10 01:36:30;;;;;;;8.20;7.40;;;12.50;99.90;;;;;;5052462;28;20090;-60
2023/05/10 01:38:59;;;;;;;9.02;7.60;;;12.40;99.90;;;;;;5052211;28;20104;-61
2023/05/10 01:41:30;;;;;;;8.05;7.25;;;12.40;99.90;;;;;;5052042;28;20043;-59
2023/05/10 01:44:16;;;;;;;9.02;7.22;;;12.40;99.90;;;;;;5052061;28;20485;-61
2023/05/10 01:46:42;;;;;;;8.30;7.07;;;12.40;99.90;;;;;;5051282;28;20045;-61
2023/05/10 01:49:21;;;;;;;7.70;7.00;;;12.40;99.90;;;;;;5052000;28;20036;-60
2023/05/10 01:51:51;;;;;;;7.82;6.72;;;12.40;99.90;;;;;;5051777;28;20460;-61
2023/05/10 01:54:19;;;;;;;7.50;6.70;;;12.40;99.90;;;;;;5050723;28;20040;-59
2023/05/10 01:56:49;;;;;;;8.00;7.13;;;12.40;99.90;;;;;;5051283;28;20047;-61
2023/05/10 01:59:19;;;;;;;8.20;6.70;;;12.40;99.90;;;;;;5051766;28;20517;-62
2023/05/10 02:01:46;;;;;;;7.32;6.57;;;12.40;99.90;;;;;;5052139;28;20037;-61
2023/05/10 02:04:15;;;;;;;7.93;6.53;;;12.30;99.90;;;;;;5051619;28;20087;-58
2023/05/10 02:06:43;;;;;;;7.78;6.30;;;12.40;99.90;;;;;;5051638;28;20059;-60
2023/05/10 02:09:11;;;;;;;7.70;6.40;;;12.40;99.90;;;;;;5052565;28;20056;-62
2023/05/10 02:11:41;;;;;;;7.50;6.70;;;12.30;99.90;;;;;;5053526;28;20033;-61
2023/05/10 02:14:09;;;;;;;8.05;6.57;;;12.30;99.90;;;;;;5051684;28;20041;-60
2023/05/10 02:16:36;;;;;;;7.32;6.53;;;12.30;99.90;;;;;;5051481;28;20044;-61
2023/05/10 02:19:03;;;;;;;8.07;6.80;;;12.30;99.90;;;;;;5051208;28;20048;-60
2023/05/10 02:21:30;;;;;;;9.02;6.25;;;12.20;99.90;;;;;;5051357;28;20069;-60
2023/05/10 02:23:58;;;;;;;7.15;6.45;;;12.20;99.90;;;;;;5033796;28;20052;-60
2023/05/10 02:26:25;;;;;;;8.43;7.10;;;12.20;99.90;;;;;;5051251;28;20151;-58
2023/05/10 02:28:53;;;;;;;7.15;6.40;;;12.20;99.90;;;;;;5052257;28;20029;-61
2023/05/10 02:31:19;;;;;;;8.35;7.15;;;12.20;99.90;;;;;;5051094;28;20029;-61
2023/05/10 02:33:45;;;;;;;8.43;6.93;;;12.20;99.90;;;;;;5049829;28;20033;-61
2023/05/10 02:36:13;;;;;;;8.73;7.85;;;12.20;99.90;;;;;;5050351;28;20052;-61
2023/05/10 02:38:40;;;;;;;9.27;7.47;;;12.20;99.90;;;;;;5048279;28;20048;-60
2023/05/10 02:41:08;;;;;;;9.30;7.97;;;12.10;99.90;;;;;;5048764;28;20041;-60
2023/05/10 02:43:35;;;;;;;8.65;7.70;;;12.20;99.90;;;;;;5049366;28;20427;-60
2023/05/10 02:46:01;;;;;;;9.65;8.10;;;12.20;99.90;;;;;;5047601;28;20056;-59
2023/05/10 02:48:28;;;;;;;8.73;7.68;;;12.20;99.90;;;;;;5048498;28;20055;-60
2023/05/10 02:50:55;;;;;;;10.73;8.18;;;12.10;99.90;;;;;;5049207;28;20082;-59
2023/05/10 02:53:30;;;;;;;9.55;8.65;;;12.10;99.90;;;;;;5050548;28;20129;-61
2023/05/10 02:55:59;;;;;;;9.10;8.15;;;12.10;99.90;;;;;;5049414;28;20047;-60
2023/05/10 02:58:25;;;;;;;9.85;8.32;;;12.10;99.90;;;;;;5050545;28;20075;-59
2023/05/10 03:00:50;;;;;;;9.05;8.15;;;12.10;99.90;;;;;;5051188;28;20041;-60
2023/05/10 03:03:16;;;;;;;8.82;7.90;;;12.10;99.90;;;;;;5049413;28;20089;-60
2023/05/10 03:05:42;;;;;;;8.70;7.75;;;12.10;99.90;;;;;;5047750;28;20483;-59
2023/05/10 03:08:08;;;;;;;9.98;8.32;;;12.10;99.90;;;;;;5050810;28;20041;-59
2023/05/10 03:10:44;;;;;;;9.82;7.95;;;12.10;99.90;;;;;;5048378;28;20041;-60
2023/05/10 03:13:16;;;;;;;9.93;8.68;;;12.10;99.90;;;;;;5050602;28;20040;-60
2023/05/10 03:15:59;;;;;;;11.93;9.07;;;12.20;99.90;;;;;;5050092;28;20045;-61
2023/05/10 03:18:43;;;;;;;10.30;8.63;;;12.20;99.90;;;;;;5049254;28;20561;-59
2023/05/10 03:21:12;;;;;;;10.43;8.75;;;12.20;99.90;;;;;;5050801;28;20091;-60
2023/05/10 03:23:57;;;;;;;10.98;8.85;;;12.10;99.90;;;;;;5050168;28;20090;-60
2023/05/10 03:26:29;;;;;;;10.52;8.65;;;12.10;99.90;;;;;;5048956;28;20088;-61
2023/05/10 03:28:58;;;;;;;9.77;8.45;;;12.10;99.90;;;;;;5032479;28;20101;-60
2023/05/10 03:31:24;;;;;;;11.63;8.65;;;12.10;99.90;;;;;;5049402;28;20372;-59
2023/05/10 03:33:51;;;;;;;10.15;9.13;;;12.10;99.90;;;;;;5050109;28;20041;-60
2023/05/10 03:36:17;;;;;;;10.60;9.45;;;12.20;99.90;;;;;;5050198;28;20047;-60
2023/05/10 03:38:43;;;;;;;9.90;8.80;;;12.10;99.90;;;;;;5050065;28;20036;-60
2023/05/10 03:41:09;;;;;;;12.77;8.85;;;12.10;99.90;;;;;;5049010;28;20399;-60
2023/05/10 03:43:35;;;;;;;9.48;8.25;;;12.10;99.90;;;;;;5051107;28;20072;-61
2023/05/10 03:46:04;;;;;;;10.60;8.80;;;12.10;99.90;;;;;;5049766;28;20480;-60
2023/05/10 03:48:30;;;;;;;13.05;8.98;;;12.10;99.90;;;;;;5048768;28;20049;-61
2023/05/10 03:50:56;;;;;;;10.05;8.38;;;12.10;99.90;;;;;;5049895;28;20487;-60
2023/05/10 03:53:22;;;;;;;9.50;8.27;;;12.10;99.90;;;;;;5048519;28;20396;-60
2023/05/10 03:55:48;;;;;;;10.00;8.90;;;12.20;99.90;;;;;;5049314;28;20045;-61
2023/05/10 03:58:14;;;;;;;10.10;8.52;;;12.20;99.90;;;;;;5047624;28;20037;-60
2023/05/10 04:00:43;;;;;;;9.77;8.77;;;12.20;99.90;;;;;;5047989;28;20045;-60
2023/05/10 04:03:09;;;;;;;12.00;9.07;;;12.20;99.90;;;;;;5048823;28;20388;-59
2023/05/10 04:05:35;;;;;;;13.73;9.15;;;12.20;99.90;;;;;;5046405;28;20049;-61
2023/05/10 04:08:02;;;;;;;11.60;9.15;;;12.20;99.90;;;;;;5052258;28;20045;-61
2023/05/10 04:10:27;;;;;;;11.18;9.20;;;12.20;99.90;;;;;;5047905;28;20069;-58
2023/05/10 04:12:53;;;;;;;11.45;8.82;;;12.20;99.90;;;;;;5049494;28;20072;-61
2023/05/10 04:15:19;;;;;;;12.27;9.88;;;12.20;99.90;;;;;;5048206;28;20037;-60
2023/05/10 04:17:45;;;;;;;11.55;9.18;;;12.20;99.90;;;;;;5048973;28;20396;-60
2023/05/10 04:20:11;;;;;;;11.63;8.82;;;12.20;99.90;;;;;;5050153;28;20033;-60
2023/05/10 04:22:37;;;;;;;12.15;9.80;;;12.20;99.90;;;;;;5053945;28;20048;-60
2023/05/10 04:25:04;;;;;;;10.52;8.75;;;12.20;99.90;;;;;;5053466;28;20029;-59
2023/05/10 04:27:30;;;;;;;12.23;9.32;;;12.10;99.90;;;;;;5051902;28;20407;-60
2023/05/10 04:29:55;;;;;;;13.30;8.80;;;12.20;99.90;;;;;;5053525;28;20044;-60
2023/05/10 04:32:21;;;;;;;12.73;8.82;;;12.20;99.90;;;;;;5053249;28;20035;-61
2023/05/10 04:34:47;;;;;;;10.27;8.63;;;12.10;99.90;;;;;;5053637;28;20087;-59
2023/05/10 04:37:12;;;;;;;10.40;8.88;;;12.10;99.90;;;;;;5054200;28;20044;-59
2023/05/10 04:39:38;;;;;;;14.02;8.80;;;12.10;99.90;;;;;;5051992;28;20114;-59
2023/05/10 04:42:05;;;;;;;11.13;8.32;;;12.10;99.90;;;;;;5051349;28;20373;-60
2023/05/10 04:44:34;;;;;;;10.23;8.80;;;12.10;99.90;;;;;;5052484;28;20468;-60
2023/05/10 04:47:02;;;;;;;10.02;8.38;;;12.00;99.90;;;;;;5051663;28;20037;-61
2023/05/10 04:49:28;;;;;;;12.88;8.27;;;12.10;99.90;;;;;;5051327;28;20454;-61
2023/05/10 04:51:53;;;;;;;11.68;8.30;;;12.10;99.90;;;;;;5052407;28;20087;-60
2023/05/10 04:54:19;;;;;;;9.30;8.02;;;12.10;99.90;;;;;;5053168;28;20029;-61
2023/05/10 04:56:45;;;;;;;11.38;8.65;;;12.10;99.90;;;;;;5051508;28;20044;-60
2023/05/10 04:59:10;;;;;;;9.63;8.40;;;12.00;99.90;;;;;;5053407;28;20155;-60
2023/05/10 05:01:36;;;;;;;11.25;8.82;;;12.00;99.90;;;;;;5052961;28;20059;-59
2023/05/10 05:04:02;;;;;;;11.60;8.43;;;12.00;99.90;;;;;;5052857;28;20047;-60
2023/05/10 05:06:27;;;;;;;11.30;8.32;;;12.00;99.90;;;;;;5052926;28;20527;-59
2023/05/10 05:08:53;;;;;;;12.10;8.75;;;12.00;99.90;;;;;;5051570;28;20033;-60
2023/05/10 05:11:19;;;;;;;15.55;9.23;;;12.00;99.90;;;;;;5051452;28;20084;-61
2023/05/10 05:13:44;;;;;;;14.38;9.13;;;12.00;99.90;;;;;;5050784;28;20108;-59
2023/05/10 05:16:13;;;;;;;17.17;9.48;;;12.00;99.90;;;;;;5051194;28;20040;-60
2023/05/10 05:18:39;;;;;;;13.52;9.40;;;12.00;99.90;;;;;;5051614;28;20407;-60
2023/05/10 05:21:16;;;;;;;15.43;9.30;;;12.00;99.90;;;;;;5052218;28;20040;-59
2023/05/10 05:23:42;;;;;;;13.95;9.35;;;11.90;99.90;;;;;;5052404;28;20048;-60
2023/05/10 05:26:08;;;;;;;13.40;8.82;;;11.90;99.90;;;;;;5051137;28;20040;-59
2023/05/10 05:28:37;;;;;;;16.80;9.43;;;11.90;99.90;;;;;;5050730;28;20086;-59
2023/05/10 05:31:03;;;;;;;15.18;9.63;;;11.90;99.90;;;;;;5051041;28;20052;-60
2023/05/10 05:33:28;;;;;;;17.55;9.70;;;11.90;99.90;;;;;;5050567;28;20056;-62
2023/05/10 05:35:54;;;;;;;19.58;9.95;;;11.90;99.90;;;;;;5051330;28;20507;-60
2023/05/10 05:38:20;;;;;;;16.75;9.80;;;11.90;99.90;;;;;;5051103;28;20041;-60
2023/05/10 05:40:45;;;;;;;15.57;10.20;;;11.90;99.90;;;;;;5052065;28;20491;-62
2023/05/10 05:43:11;;;;;;;18.10;10.68;;;11.90;99.90;;;;;;5051379;28;20053;-61
2023/05/10 05:45:37;;;;;;;17.38;9.98;;;12.00;99.90;;;;;;5051141;28;20507;-61
2023/05/10 05:48:03;;;;;;;18.70;10.07;;;12.00;99.90;;;;;;5052927;28;20415;-59
2023/05/10 05:50:28;;;;;;;17.67;10.00;;;12.00;99.90;;;;;;5048872;28;20043;-61
2023/05/10 05:52:54;;;;;;;18.15;10.05;;;12.00;99.90;;;;;;5052046;28;20044;-59
2023/05/10 05:55:19;;;;;;;18.10;10.52;;;12.10;99.90;;;;;;5050802;28;20048;-60
2023/05/10 05:57:45;;;;;;;16.45;10.15;;;12.20;99.90;;;;;;5051786;28;20083;-61
2023/05/10 06:00:11;;;;;;;21.27;10.75;;;12.20;99.90;;;;;;5051180;28;20381;-62
2023/05/10 06:02:37;;;;;;;16.55;9.88;;;12.30;99.90;;;;;;5051318;28;20094;-60
2023/05/10 06:05:02;;;;;;;15.85;9.82;;;12.40;99.90;;;;;;5049948;28;20037;-60
2023/05/10 06:07:28;;;;;;;15.70;9.57;;;12.40;99.90;;;;;;5050023;28;20072;-61
2023/05/10 06:09:53;;;;;;;14.98;9.10;;;12.50;99.90;;;;;;5049255;28;20045;-60
2023/05/10 06:12:19;;;;;;;14.98;8.93;;;12.50;99.90;;;;;;5051558;28;20542;-61
2023/05/10 06:14:45;;;;;;;14.50;9.43;;;12.60;99.90;;;;;;5050330;28;20048;-61
2023/05/10 06:17:11;;;;;;;14.18;9.13;;;12.70;99.90;;;;;;5030395;28;20452;-62
2023/05/10 06:19:36;;;;;;;11.30;7.95;;;12.70;99.90;;;;;;5049224;28;20044;-61
2023/05/10 06:22:02;;;;;;;15.07;8.68;;;12.80;99.90;;;;;;5051173;28;20451;-61
2023/05/10 06:24:28;;;;;;;11.73;8.15;;;12.80;99.90;;;;;;5050298;28;20041;-61
2023/05/10 06:26:53;;;;;;;11.30;8.07;;;12.90;99.90;;;;;;5047760;28;20068;-61
2023/05/10 06:29:19;;;;;;;10.80;7.50;;;12.90;99.90;;;;;;5048954;28;20082;-60
2023/05/10 06:31:45;;;;;;;12.85;8.05;;;13.10;99.90;;;;;;5047956;28;20439;-62
2023/05/10 06:34:11;;;;;;;12.20;7.50;;;13.00;99.90;;;;;;5050302;28;20045;-62
2023/05/10 06:36:37;;;;;;;12.45;6.80;;;13.10;99.90;;;;;;5049719;28;20040;-60
2023/05/10 06:39:03;;;;;;;13.00;7.72;;;13.10;99.90;;;;;;5049803;28;20091;-61
2023/05/10 06:41:28;;;;;;;10.77;7.47;;;13.10;99.90;;;;;;5049730;28;20071;-61
2023/05/10 06:43:54;;;;;;;12.73;7.72;;;13.00;99.90;;;;;;5048789;28;20037;-59
2023/05/10 06:46:20;;;;;;;12.48;7.28;;;13.00;99.90;;;;;;5050558;28;20045;-62
2023/05/10 06:48:45;;;;;;;14.02;7.85;;;12.90;99.90;;;;;;5051002;28;20394;-60
2023/05/10 06:51:11;;;;;;;13.32;7.55;;;12.80;99.90;;;;;;5051017;28;20056;-63
2023/05/10 06:53:37;;;;;;;13.15;7.38;;;12.80;99.90;;;;;;5050877;28;20037;-60
2023/05/10 06:56:03;;;;;;;14.93;8.07;;;12.70;99.90;;;;;;5049789;28;20090;-61
2023/05/10 06:58:28;;;;;;;13.45;8.63;;;12.70;99.90;;;;;;5050954;28;20041;-61
2023/05/10 07:00:54;;;;;;;14.48;7.60;;;12.70;99.90;;;;;;5050138;28;20392;-61
2023/05/10 07:03:19;;;;;;;13.30;7.72;;;12.80;99.90;;;;;;5050749;28;20044;-62
2023/05/10 07:05:45;;;;;;;11.45;7.68;;;12.70;99.90;;;;;;5049078;28;20040;-61
2023/05/10 07:08:11;;;;;;;12.50;7.60;;;12.80;99.90;;;;;;5048421;28;20091;-62
2023/05/10 07:10:36;;;;;;;11.95;7.18;;;12.70;99.90;;;;;;5049327;28;20040;-60
2023/05/10 07:13:02;;;;;;;11.50;7.22;;;12.80;99.90;;;;;;5048058;28;20036;-61
2023/05/10 07:15:28;;;;;;;12.38;7.75;;;12.80;99.90;;;;;;5050631;28;20033;-60
2023/05/10 07:17:54;;;;;;;12.50;6.82;;;12.70;99.90;;;;;;5034527;28;20048;-61
2023/05/10 07:20:19;;;;;;;12.85;7.35;;;12.70;99.90;;;;;;5050296;28;20048;-60
2023/05/10 07:22:45;;;;;;;12.88;7.70;;;12.70;99.90;;;;;;5049201;28;20048;-61
2023/05/10 07:25:10;;;;;;;9.63;6.38;;;12.70;99.90;;;;;;5050231;28;20533;-61
2023/05/10 07:27:36;;;;;;;10.43;6.75;;;12.60;99.90;;;;;;5050185;28;20079;-60
2023/05/10 07:30:02;;;;;;;9.98;6.35;;;12.70;99.90;;;;;;5048636;28;20036;-61
2023/05/10 07:32:28;;;;;;;10.30;6.75;;;12.60;99.90;;;;;;5050264;28;20029;-62
2023/05/10 07:34:53;;;;;;;10.57;6.70;;;12.60;99.90;;;;;;5050573;28;20025;-61
2023/05/10 07:37:19;;;;;;;10.02;6.53;;;12.60;99.90;;;;;;5048526;28;20079;-60
2023/05/10 07:39:44;;;;;;;12.23;6.70;;;12.60;99.90;;;;;;5052436;28;20047;-60
2023/05/10 07:42:10;;;;;;;8.90;6.30;;;12.80;99.90;;;;;;5048445;28;20476;-61
2023/05/10 07:44:36;;;;;;;9.20;6.20;;;12.90;99.90;;;;;;5050008;28;20058;-60
2023/05/10 07:47:01;;;;;;;8.95;5.97;;;12.90;99.90;;;;;;5048904;28;20529;-61
2023/05/10 07:49:27;;;;;;;8.48;5.90;;;12.90;99.90;;;;;;5049630;28;20037;-60
2023/05/10 07:51:52;;;;;;;10.57;6.43;;;12.80;99.90;;;;;;5048702;28;20063;-62
2023/05/10 07:54:18;;;;;;;6.63;5.30;;;12.80;99.90;;;;;;5048636;28;20049;-62
2023/05/10 07:56:46;;;;;;;9.43;5.78;;;12.90;99.90;;;;;;5054205;28;20040;-61
2023/05/10 07:59:15;;;;;;;6.63;5.15;;;13.00;99.90;;;;;;5056523;28;20499;-61
2023/05/10 08:01:42;;;;;;;8.45;5.85;;;13.10;99.90;;;;;;5057525;28;20070;-60
2023/05/10 08:04:08;;;;;;;7.18;5.53;;;13.20;99.90;;;;;;5054253;28;20037;-60
2023/05/10 08:06:34;;;;;;;7.10;4.95;;;13.30;99.90;;;;;;5053610;28;20049;-59
2023/05/10 08:09:00;;;;;;;5.53;4.53;;;13.30;99.90;;;;;;5055973;28;20029;-61
2023/05/10 08:11:27;;;;;;;6.95;5.30;;;13.30;99.90;;;;;;5055395;28;20527;-61
2023/05/10 08:13:53;;;;;;;7.00;5.07;;;13.30;99.90;;;;;;5055651;28;20072;-60
2023/05/10 08:16:19;;;;;;;7.05;5.20;;;13.40;99.90;;;;;;5055218;28;20037;-60
2023/05/10 08:18:46;;;;;;;6.10;5.28;;;13.40;99.90;;;;;;5056180;28;20048;-61
2023/05/10 08:21:13;;;;;;;7.80;6.60;;;13.40;99.90;;;;;;5054811;28;20085;-62
2023/05/10 08:23:39;;;;;;;6.68;5.40;;;13.40;99.90;;;;;;5054332;28;20040;-62
2023/05/10 08:26:04;;;;;;;7.05;5.78;;;13.50;99.90;;;;;;5055180;28;20035;-60
2023/05/10 08:28:30;;;;;;;6.45;5.50;;;13.50;99.90;;;;;;5055162;28;20029;-62
2023/05/10 08:30:56;;;;;;;7.93;6.25;;;13.50;99.90;;;;;;5055416;28;20048;-60
2023/05/10 08:33:21;;;;;;;8.48;6.50;;;13.60;99.90;;;;;;5055787;28;20036;-62
2023/05/10 08:35:47;;;;;;;8.82;6.60;;;13.70;99.90;;;;;;5054640;28;20134;-61
2023/05/10 08:38:13;;;;;;;8.35;6.35;;;13.70;99.90;;;;;;5054630;28;20041;-61
2023/05/10 08:40:42;;;;;;;8.02;6.60;;;13.70;99.90;;;;;;5055495;28;20474;-59
2023/05/10 08:43:10;;;;;;;8.75;6.50;;;13.60;99.90;;;;;;5055753;28;20071;-62
2023/05/10 08:45:40;;;;;;;8.07;7.03;;;13.50;99.90;;;;;;5054040;28;20044;-61
2023/05/10 08:48:08;;;;;;;9.20;7.25;;;13.50;99.90;;;;;;5055907;28;20036;-61
2023/05/10 08:50:37;;;;;;;10.63;7.70;;;13.50;99.90;;;;;;5055837;28;20040;-61
2023/05/10 08:53:09;;;;;;;8.50;7.05;;;13.50;99.90;;;;;;5055962;28;20044;-60
2023/05/10 08:55:36;;;;;;;8.47;7.03;;;13.50;99.90;;;;;;5055520;28;20125;-62
2023/05/10 08:58:03;;;;;;;9.93;7.95;;;13.40;99.90;;;;;;5056222;28;20065;-60
2023/05/10 09:00:30;;;;;;;10.23;7.57;;;13.40;99.90;;;;;;5056049;28;20106;-61
2023/05/10 09:02:58;;;;;;;9.80;8.00;;;13.40;99.90;;;;;;5056072;28;20053;-60
2023/05/10 09:05:24;;;;;;;9.48;7.90;;;13.50;99.90;;;;;;5055678;28;20053;-60
2023/05/10 09:07:49;;;;;;;10.52;9.18;;;13.50;99.90;;;;;;5051981;28;20106;-61
2023/05/10 09:10:16;;;;;;;11.02;9.18;;;13.60;99.90;;;;;;5053299;28;20041;-61
2023/05/10 09:12:43;;;;;;;11.48;9.18;;;13.70;99.90;;;;;;5051438;28;20044;-60
2023/05/10 09:15:10;;;;;;;10.27;8.57;;;13.70;99.90;;;;;;5052718;28;20097;-61
2023/05/10 09:17:36;;;;;;;10.50;8.68;;;13.80;99.90;;;;;;5051554;28;20045;-61
2023/05/10 09:20:06;;;;;;;12.60;9.25;;;13.80;99.90;;;;;;5051414;28;20049;-61
2023/05/10 09:22:33;;;;;;;13.32;8.93;;;13.90;99.90;;;;;;5052826;28;20049;-61
2023/05/10 09:25:05;;;;;;;10.57;9.20;;;13.90;99.90;;;;;;5052629;28;20075;-59
2023/05/10 09:27:30;;;;;;;12.75;9.73;;;13.80;99.90;;;;;;5053218;28;20051;-61
2023/05/10 09:29:57;;;;;;;27.88;13.10;;;13.80;99.90;;;;;;5052077;28;20037;-60
2023/05/10 09:32:43;;;;;;;13.68;10.55;;;13.90;99.90;;;;;;5051254;28;20080;-62
2023/05/10 09:35:13;;;;;;;11.70;9.88;;;13.80;99.90;;;;;;5051253;28;20044;-62
2023/05/10 09:37:43;;;;;;;13.55;10.18;;;13.80;99.90;;;;;;5053032;28;20044;-61
2023/05/10 09:40:14;;;;;;;12.18;9.85;;;13.90;99.90;;;;;;5051022;28;20116;-61
2023/05/10 09:42:54;;;;;;;12.68;9.82;;;14.00;99.90;;;;;;5050853;28;20120;-62
2023/05/10 09:45:21;;;;;;;13.90;9.27;;;14.10;99.90;;;;;;5050965;28;20048;-60
2023/05/10 09:47:46;;;;;;;11.85;9.40;;;14.10;99.90;;;;;;5050857;28;20090;-61
2023/05/10 09:50:12;;;;;;;11.15;8.40;;;14.20;99.90;;;;;;5052326;28;20041;-61
2023/05/10 09:52:52;;;;;;;10.48;8.45;;;14.20;99.90;;;;;;5050725;28;20377;-60
2023/05/10 09:55:21;;;;;;;10.30;7.93;;;14.20;99.90;;;;;;5050859;28;20572;-61
2023/05/10 09:57:48;;;;;;;10.82;9.40;;;14.20;99.90;;;;;;5054265;28;20501;-61
2023/05/10 10:00:20;;;;;;;10.70;8.55;;;14.20;99.90;;;;;;5052285;28;20041;-61
2023/05/10 10:02:47;;;;;;;;;;;14.20;99.90;;;;;;5051015;28;20041;-62
2023/05/10 10:05:13;;;;;;;10.15;8.02;;;14.40;99.90;;;;;;5067450;28;19932;-61
2023/05/10 10:07:39;;;;;;;14.15;9.63;;;14.40;99.90;;;;;;5051585;28;20057;-59
2023/05/10 10:10:11;;;;;;;13.45;10.00;;;14.50;99.90;;;;;;5051132;28;20052;-62
2023/05/10 10:12:37;;;;;;;14.37;9.30;;;14.60;99.90;;;;;;5051665;28;20548;-61
2023/05/10 10:15:04;;;;;;;12.55;8.85;;;14.70;99.90;;;;;;5051435;28;20037;-59
2023/05/10 10:17:31;;;;;;;12.10;8.63;;;14.70;99.90;;;;;;5051385;28;20037;-60
2023/05/10 10:19:58;;;;;;;11.85;9.05;;;14.70;99.90;;;;;;5051994;28;20033;-62
2023/05/10 10:22:23;;;;;;;14.70;9.77;;;14.60;99.90;;;;;;5049933;28;20548;-60
2023/05/10 10:24:50;;;;;;;10.82;9.35;;;14.60;99.90;;;;;;5051297;28;20179;-62
2023/05/10 10:27:46;;;;;;;11.85;9.50;;;14.50;99.90;;;;;;5051542;28;20109;-61
2023/05/10 10:30:11;;;;;;;10.23;8.77;;;14.50;99.90;;;;;;5044129;28;20068;-61
2023/05/10 10:33:18;;;;;;;11.18;8.20;;;14.50;99.90;;;;;;5049931;28;20045;-61
2023/05/10 10:35:46;;;;;;;9.52;7.28;;;14.50;99.90;;;;;;5051276;28;20072;-59
2023/05/10 10:38:12;;;;;;;12.38;6.88;;;14.40;99.90;;;;;;5050864;28;20102;-60
2023/05/10 10:40:38;;;;;;;9.38;7.90;;;14.40;99.90;;;;;;5050931;28;20403;-60
2023/05/10 10:43:25;;;;;;;11.18;7.75;;;14.40;99.90;;;;;;5049904;28;20048;-60
2023/05/10 10:46:14;;;;;;;13.80;10.63;;;14.40;99.90;;;;;;5047611;28;20033;-60
2023/05/10 10:48:41;;;;;;;11.52;9.55;;;14.30;99.90;;;;;;5059596;28;20052;-60
2023/05/10 10:51:06;;;;;;;14.43;10.45;;;14.20;99.90;;;;;;5050156;28;20131;-60
2023/05/10 10:53:33;;;;;;;13.32;10.50;;;14.10;99.90;;;;;;5048555;28;20128;-62
2023/05/10 10:56:14;;;;;;;12.18;9.85;;;14.10;99.90;;;;;;5048366;28;20124;-60
2023/05/10 10:58:41;;;;;;;12.50;10.32;;;14.00;99.90;;;;;;5048497;28;20075;-60
2023/05/10 11:01:19;;;;;;;13.30;9.88;;;14.00;99.90;;;;;;5050306;28;20033;-59
2023/05/10 11:04:03;;;;;;;11.85;9.93;;;14.10;99.90;;;;;;5048974;28;20088;-59
2023/05/10 11:06:34;;;;;;;14.27;11.48;;;14.00;99.90;;;;;;5049297;28;20074;-60
2023/05/10 11:09:08;;;;;;;14.77;11.35;;;14.00;99.90;;;;;;5064835;28;20049;-59
2023/05/10 11:11:35;;;;;;;13.80;11.25;;;14.10;99.90;;;;;;5049221;28;20422;-59
2023/05/10 11:14:07;;;;;;;13.85;11.00;;;14.10;99.90;;;;;;5048657;28;20037;-60
2023/05/10 11:16:43;;;;;;;15.82;10.95;;;14.20;99.90;;;;;;5049011;28;20115;-62
2023/05/10 11:19:11;;;;;;;15.10;11.77;;;14.20;99.90;;;;;;5046776;28;20037;-62
2023/05/10 11:21:50;;;;;;;15.27;10.82;;;14.20;99.90;;;;;;5047900;28;20036;-62
2023/05/10 11:24:18;;;;;;;13.30;10.30;;;14.20;99.90;;;;;;5051822;28;20128;-60
2023/05/10 11:26:44;;;;;;;14.60;11.13;;;14.30;99.90;;;;;;5047216;28;20491;-60
2023/05/10 11:29:09;;;;;;;14.13;10.88;;;14.30;99.90;;;;;;5048174;28;20048;-61
2023/05/10 11:31:41;;;;;;;15.90;11.63;;;14.30;99.90;;;;;;5048592;28;20361;-61
2023/05/10 11:34:07;;;;;;;16.85;11.95;;;14.30;99.90;;;;;;5062722;28;20041;-60
2023/05/10 11:36:36;;;;;;;15.80;11.98;;;14.40;99.90;;;;;;5047107;28;20032;-62
2023/05/10 11:39:02;;;;;;;13.98;11.32;;;14.50;99.90;;;;;;5047914;28;20044;-61
2023/05/10 11:41:29;;;;;;;14.77;11.63;;;14.60;99.90;;;;;;5048978;28;20554;-62
2023/05/10 11:43:56;;;;;;;16.33;11.65;;;14.70;99.90;;;;;;5048513;28;20134;-61
2023/05/10 11:46:24;;;;;;;14.55;11.27;;;14.80;99.90;;;;;;5046779;28;20513;-60
2023/05/10 11:48:51;;;;;;;14.18;11.52;;;14.80;99.90;;;;;;5048941;28;20039;-61
2023/05/10 11:51:21;;;;;;;12.95;10.85;;;14.90;99.90;;;;;;5047668;28;20075;-60
2023/05/10 11:53:48;;;;;;;12.10;10.57;;;14.90;99.90;;;;;;5045043;28;20470;-61
2023/05/10 11:56:14;;;;;;;13.50;10.68;;;14.90;99.90;;;;;;5047187;28;20065;-62
2023/05/10 11:58:40;;;;;;;14.50;12.02;;;14.90;99.90;;;;;;5047282;28;20122;-61
2023/05/10 12:01:07;;;;;;;13.82;11.30;;;14.80;99.90;;;;;;5047223;28;20041;-62
2023/05/10 12:03:34;;;;;;;14.77;11.13;;;14.80;99.90;;;;;;5048545;28;20344;-60
2023/05/10 12:06:00;;;;;;;15.75;11.23;;;14.80;99.90;;;;;;5044859;28;20111;-61
2023/05/10 12:08:28;;;;;;;15.55;11.25;;;14.90;99.90;;;;;;5048297;28;20085;-62
2023/05/10 12:11:07;;;;;;;15.65;11.73;;;14.90;99.90;;;;;;5029665;28;20067;-60
2023/05/10 12:13:38;;;;;;;16.05;11.10;;;14.80;99.90;;;;;;5047775;28;20063;-61
2023/05/10 12:16:23;;;;;;;16.65;11.43;;;14.80;99.90;;;;;;5048732;28;20041;-59
2023/05/10 12:18:50;;;;;;;15.80;11.35;;;14.80;99.90;;;;;;5044816;28;20537;-60
2023/05/10 12:21:17;;;;;;;13.15;9.95;;;14.90;99.90;;;;;;5046835;28;20037;-61
2023/05/10 12:23:45;;;;;;;12.07;8.90;;;14.90;99.90;;;;;;5048771;28;20119;-60
2023/05/10 12:26:11;;;;;;;12.23;9.50;;;14.90;99.90;;;;;;5047257;28;20049;-62
2023/05/10 12:28:37;;;;;;;13.15;10.05;;;15.00;99.90;;;;;;5048358;28;20128;-61
2023/05/10 12:31:07;;;;;;;14.30;9.35;;;15.10;99.90;;;;;;5046906;28;20033;-61
2023/05/10 12:33:43;;;;;;;10.65;8.65;;;15.10;99.90;;;;;;5048928;28;20124;-60
2023/05/10 12:36:13;;;;;;;11.38;8.43;;;15.10;99.90;;;;;;5049746;28;20041;-62
2023/05/10 12:38:45;;;;;;;8.60;7.10;;;15.10;99.90;;;;;;5048909;28;20534;-61
2023/05/10 12:41:13;;;;;;;10.02;7.20;;;15.10;99.90;;;;;;5050075;28;20052;-61